createdAt,value
2022-08-03T00:01:48.582Z,101521.81
2022-08-03T00:04:15.041Z,101519.91
2022-08-03T00:06:41.457Z,101517.16
2022-08-03T00:09:08.218Z,101522.66
2022-08-03T00:11:35.135Z,101520.94
2022-08-03T00:14:01.682Z,101517.38
2022-08-03T00:16:28.242Z,101514.81
2022-08-03T00:18:54.637Z,101513.75
2022-08-03T00:21:21.147Z,101513.97
2022-08-03T00:23:52.178Z,101507.63
2022-08-03T00:26:19.344Z,101511.88
2022-08-03T00:28:45.765Z,101505.34
2022-08-03T00:31:13.565Z,101500.72
2022-08-03T00:33:59.117Z,101513.38
2022-08-03T00:36:26.871Z,101507.88
2022-08-03T00:38:53.290Z,101506.84
2022-08-03T00:41:21.565Z,101499.66
2022-08-03T00:43:48.201Z,101498.81
2022-08-03T00:46:19.240Z,101502.41
2022-08-03T00:48:49.042Z,101498.81
2022-08-03T00:51:15.461Z,101501.56
2022-08-03T00:53:41.871Z,101490.59
2022-08-03T00:56:08.301Z,101486.81
2022-08-03T00:58:34.716Z,101484.06
2022-08-03T01:01:01.255Z,101482.38
2022-08-03T01:03:27.842Z,101474.84
2022-08-03T01:06:16.736Z,101480.47
2022-08-03T01:08:48.924Z,101481.53
2022-08-03T01:11:19.195Z,101475.22
2022-08-03T01:14:03.965Z,101477.09
2022-08-03T01:16:52.617Z,101472.47
2022-08-03T01:19:37.888Z,101467.00
2022-08-03T01:22:10.347Z,101468.69
2022-08-03T01:24:52.056Z,101467.63
2022-08-03T01:27:21.906Z,101461.50
2022-08-03T01:29:48.267Z,101465.94
2022-08-03T01:32:59.695Z,101460.47
2022-08-03T01:35:42.394Z,101465.09
2022-08-03T01:38:13.782Z,101463.19
2022-08-03T01:40:41.726Z,101471.41
2022-08-03T01:43:09.706Z,101472.25
2022-08-03T01:45:36.822Z,101465.09
2022-08-03T01:48:03.607Z,101470.78
2022-08-03T01:50:30.993Z,101478.13
2022-08-03T01:52:58.478Z,101465.47
2022-08-03T01:55:28.244Z,101467.38
2022-08-03T01:58:05.964Z,101461.06
2022-08-03T02:00:35.696Z,101469.28
2022-08-03T02:03:04.630Z,101468.44
2022-08-03T02:05:31.626Z,101468.44
2022-08-03T02:07:58.588Z,101470.13
2022-08-03T02:10:35.333Z,101465.47
2022-08-03T02:13:03.049Z,101470.13
2022-08-03T02:15:30.472Z,101465.47
2022-08-03T02:17:57.611Z,101469.28
2022-08-03T02:20:24.181Z,101460.84
2022-08-03T02:22:50.572Z,101455.56
2022-08-03T02:25:17.196Z,101441.66
2022-08-03T02:27:48.964Z,101453.28
2022-08-03T02:30:15.555Z,101450.56
2022-08-03T02:32:43.890Z,101454.13
2022-08-03T02:35:11.953Z,101451.59
2022-08-03T02:37:42.875Z,101446.13
2022-08-03T02:40:10.240Z,101450.56
2022-08-03T02:42:38.589Z,101442.50
2022-08-03T02:45:06.754Z,101437.69
2022-08-03T02:47:53.797Z,101444.00
2022-08-03T02:50:21.927Z,101454.13
2022-08-03T02:52:49.670Z,101439.75
2022-08-03T02:55:16.597Z,101457.09
2022-08-03T02:57:44.558Z,101454.53
2022-08-03T03:00:11.265Z,101450.72
2022-08-03T03:02:38.491Z,101456.41
2022-08-03T03:05:52.602Z,101460.84
2022-08-03T03:07:57.261Z,101460.84
2022-08-03T03:10:24.717Z,101455.38
2022-08-03T03:12:52.570Z,101455.56
2022-08-03T03:15:19.043Z,101460.84
2022-08-03T03:17:46.069Z,101461.69
2022-08-03T03:20:12.762Z,101457.94
2022-08-03T03:22:40.150Z,101456.88
2022-08-03T03:25:11.866Z,101456.88
2022-08-03T03:27:39.292Z,101456.03
2022-08-03T03:30:06.026Z,101451.41
2022-08-03T03:32:32.472Z,101449.88
2022-08-03T03:34:59.612Z,101460.00
2022-08-03T03:37:28.795Z,101462.75
2022-08-03T03:39:55.309Z,101465.69
2022-08-03T03:42:21.700Z,101464.84
2022-08-03T03:44:48.290Z,101472.00
2022-08-03T03:47:14.799Z,101467.59
2022-08-03T03:49:43.469Z,101461.06
2022-08-03T03:52:10.453Z,101464.16
2022-08-03T03:54:41.357Z,101461.44
2022-08-03T03:57:07.873Z,101455.78
2022-08-03T03:59:39.718Z,101454.72
2022-08-03T04:02:07.156Z,101462.09
2022-08-03T04:04:52.813Z,101455.78
2022-08-03T04:07:38.110Z,101457.63
2022-08-03T04:10:27.635Z,101461.44
2022-08-03T04:12:56.055Z,101457.63
2022-08-03T04:15:24.103Z,101460.38
2022-08-03T04:17:52.313Z,101468.59
2022-08-03T04:20:21.381Z,101471.53
2022-08-03T04:22:49.634Z,101459.53
2022-08-03T04:25:19.342Z,101467.75
2022-08-03T04:28:08.063Z,101472.22
2022-08-03T04:30:36.169Z,101473.06
2022-08-03T04:33:02.719Z,101475.81
2022-08-03T04:36:00.991Z,101479.19
2022-08-03T04:38:20.045Z,101471.16
2022-08-03T04:40:47.895Z,101478.34
2022-08-03T04:43:16.692Z,101470.13
2022-08-03T04:45:43.843Z,101476.44
2022-08-03T04:48:10.313Z,101480.88
2022-08-03T04:50:37.006Z,101475.38
2022-08-03T04:53:03.649Z,101482.38
2022-08-03T04:55:30.952Z,101482.19
2022-08-03T04:57:57.804Z,101477.56
2022-08-03T05:00:24.908Z,101473.94
2022-08-03T05:02:51.495Z,101479.44
2022-08-03T05:05:17.985Z,101475.00
2022-08-03T05:07:45.706Z,101482.59
2022-08-03T05:10:16.002Z,101484.47
2022-08-03T05:12:44.014Z,101475.59
2022-08-03T05:15:10.570Z,101479.19
2022-08-03T05:17:37.032Z,101482.75
2022-08-03T05:20:04.572Z,101476.44
2022-08-03T05:22:30.965Z,101483.59
2022-08-03T05:24:57.688Z,101480.03
2022-08-03T05:27:24.108Z,101480.03
2022-08-03T05:29:51.160Z,101479.19
2022-08-03T05:32:18.158Z,101480.69
2022-08-03T05:34:44.809Z,101477.94
2022-08-03T05:37:11.335Z,101485.97
2022-08-03T05:39:38.225Z,101483.69
2022-08-03T05:42:04.785Z,101481.63
2022-08-03T05:44:31.793Z,101489.84
2022-08-03T05:46:58.565Z,101488.78
2022-08-03T05:49:25.031Z,101493.22
2022-08-03T05:52:00.354Z,101482.06
2022-08-03T05:54:56.306Z,101486.50
2022-08-03T05:57:24.090Z,101493.69
2022-08-03T05:59:53.896Z,101493.47
2022-08-03T06:02:24.735Z,101495.16
2022-08-03T06:04:51.136Z,101487.81
2022-08-03T06:07:17.774Z,101489.69
2022-08-03T06:10:35.093Z,101492.25
2022-08-03T06:12:31.144Z,101493.09
2022-08-03T06:14:57.631Z,101482.97
2022-08-03T06:17:24.104Z,101491.19
2022-08-03T06:19:53.708Z,101485.72
2022-08-03T06:22:20.436Z,101492.88
2022-08-03T06:24:53.539Z,101488.25
2022-08-03T06:27:21.158Z,101482.75
2022-08-03T06:30:03.669Z,101489.13
2022-08-03T06:32:30.088Z,101491.88
2022-08-03T06:34:56.475Z,101490.81
2022-08-03T06:37:24.515Z,101489.97
2022-08-03T06:39:50.904Z,101482.38
2022-08-03T06:42:17.539Z,101481.31
2022-08-03T06:44:44.131Z,101484.06
2022-08-03T06:47:10.528Z,101481.31
2022-08-03T06:49:37.117Z,101484.06
2022-08-03T06:52:06.949Z,101484.94
2022-08-03T06:54:33.658Z,101483.03
2022-08-03T06:57:00.103Z,101481.16
2022-08-03T07:00:06.145Z,101474.81
2022-08-03T07:02:13.020Z,101479.25
2022-08-03T07:04:45.797Z,101478.19
2022-08-03T07:07:12.227Z,101475.47
2022-08-03T07:09:38.680Z,101478.19
2022-08-03T07:12:08.295Z,101480.09
2022-08-03T07:14:35.083Z,101477.16
2022-08-03T07:17:01.500Z,101472.72
2022-08-03T07:19:31.273Z,101470.81
2022-08-03T07:22:02.173Z,101468.91
2022-08-03T07:24:30.768Z,101475.28
2022-08-03T07:26:57.220Z,101478.19
2022-08-03T07:29:23.687Z,101479.88
2022-08-03T07:31:50.216Z,101477.16
2022-08-03T07:34:16.830Z,101472.72
2022-08-03T07:36:43.453Z,101473.38
2022-08-03T07:39:15.806Z,101469.97
2022-08-03T07:41:45.302Z,101464.09
2022-08-03T07:44:11.785Z,101467.91
2022-08-03T07:46:38.324Z,101460.31
2022-08-03T07:49:05.456Z,101458.16
2022-08-03T07:51:31.985Z,101455.03
2022-08-03T07:53:59.105Z,101462.66
2022-08-03T07:56:25.778Z,101454.06
2022-08-03T07:58:52.691Z,101461.00
2022-08-03T08:01:19.607Z,101455.53
2022-08-03T08:03:52.312Z,101457.03
2022-08-03T08:06:19.653Z,101460.63
2022-08-03T08:08:46.523Z,101461.47
2022-08-03T08:11:13.116Z,101461.25
2022-08-03T08:13:39.660Z,101462.31
2022-08-03T08:16:06.403Z,101459.41
2022-08-03T08:18:32.955Z,101465.72
2022-08-03T08:21:01.490Z,101460.25
2022-08-03T08:23:43.404Z,101452.84
2022-08-03T08:26:11.106Z,101449.44
2022-08-03T08:28:37.564Z,101460.03
2022-08-03T08:31:04.091Z,101452.84
2022-08-03T08:33:54.203Z,101452.84
2022-08-03T08:36:17.387Z,101454.34
2022-08-03T08:38:45.044Z,101448.84
2022-08-03T08:41:12.114Z,101456.22
2022-08-03T08:43:38.888Z,101447.81
2022-08-03T08:46:08.232Z,101457.94
2022-08-03T08:48:35.927Z,101456.06
2022-08-03T08:51:02.706Z,101463.44
2022-08-03T08:53:29.451Z,101460.47
2022-08-03T08:56:00.875Z,101461.31
2022-08-03T08:58:34.695Z,101451.41
2022-08-03T09:01:01.252Z,101450.34
2022-08-03T09:03:30.222Z,101453.09
2022-08-03T09:05:58.293Z,101451.41
2022-08-03T09:08:24.859Z,101449.31
2022-08-03T09:10:51.299Z,101453.94
2022-08-03T09:13:17.706Z,101451.19
2022-08-03T09:15:51.281Z,101452.03
2022-08-03T09:18:32.784Z,101446.56
2022-08-03T09:21:33.666Z,101454.78
2022-08-03T09:24:03.864Z,101441.06
2022-08-03T09:26:32.232Z,101451.00
2022-08-03T09:29:05.923Z,101445.50
2022-08-03T09:31:43.128Z,101439.19
2022-08-03T09:34:11.632Z,101436.44
2022-08-03T09:36:45.892Z,101437.28
2022-08-03T09:39:40.770Z,101440.91
2022-08-03T09:42:09.487Z,101439.84
2022-08-03T09:44:40.962Z,101438.16
2022-08-03T09:47:07.684Z,101429.72
2022-08-03T09:49:37.191Z,101429.72
2022-08-03T09:52:33.020Z,101439.84
2022-08-03T09:54:59.875Z,101428.88
2022-08-03T09:57:26.853Z,101436.03
2022-08-03T10:00:03.137Z,101441.53
2022-08-03T10:02:32.951Z,101425.06
2022-08-03T10:04:59.452Z,101431.41
2022-08-03T10:07:25.853Z,101429.50
2022-08-03T10:10:31.328Z,101420.44
2022-08-03T10:12:57.380Z,101435.19
2022-08-03T10:16:21.430Z,101424.00
2022-08-03T10:18:10.387Z,101428.66
2022-08-03T10:20:38.197Z,101422.31
2022-08-03T10:23:05.208Z,101418.53
2022-08-03T10:25:34.114Z,101423.19
2022-08-03T10:28:02.142Z,101417.69
2022-08-03T10:30:29.321Z,101410.31
2022-08-03T10:33:00.036Z,101412.06
2022-08-03T10:35:26.946Z,101406.56
2022-08-03T10:37:59.083Z,101403.81
2022-08-03T10:40:47.672Z,101403.81
2022-08-03T10:43:18.657Z,101399.34
2022-08-03T10:45:46.085Z,101400.19
2022-08-03T10:48:13.636Z,101395.59
2022-08-03T10:50:42.166Z,101399.19
2022-08-03T10:53:08.782Z,101398.34
2022-08-03T10:55:58.185Z,101395.59
2022-08-03T10:58:53.341Z,101395.59
2022-08-03T11:02:00.205Z,101393.69
2022-08-03T11:04:29.513Z,101374.66
2022-08-03T11:07:15.076Z,101375.50
2022-08-03T11:09:42.847Z,101383.72
2022-08-03T11:12:31.126Z,101380.13
2022-08-03T11:15:02.709Z,101380.13
2022-08-03T11:17:29.382Z,101381.88
2022-08-03T11:19:56.462Z,101371.91
2022-08-03T11:22:25.097Z,101379.78
2022-08-03T11:24:53.794Z,101369.84
2022-08-03T11:27:22.738Z,101374.50
2022-08-03T11:30:04.421Z,101370.00
2022-08-03T11:32:51.543Z,101369.84
2022-08-03T11:35:25.493Z,101375.50
2022-08-03T11:38:04.330Z,101366.41
2022-08-03T11:40:53.567Z,101370.91
2022-08-03T11:43:30.630Z,101368.16
2022-08-03T11:46:00.793Z,101370.91
2022-08-03T11:48:28.436Z,101367.25
2022-08-03T11:50:54.890Z,101356.28
2022-08-03T11:53:21.304Z,101364.38
2022-08-03T11:55:53.141Z,101349.13
2022-08-03T11:59:00.776Z,101362.69
2022-08-03T12:01:08.230Z,101364.53
2022-08-03T12:03:35.461Z,101359.03
2022-08-03T12:06:03.098Z,101363.53
2022-08-03T12:08:32.621Z,101358.03
2022-08-03T12:11:00.316Z,101359.94
2022-08-03T12:14:45.383Z,101358.03
2022-08-03T12:16:23.891Z,101359.94
2022-08-03T12:18:56.772Z,101359.03
2022-08-03T12:21:24.771Z,101362.69
2022-08-03T12:23:51.333Z,101357.34
2022-08-03T12:26:17.759Z,101359.03
2022-08-03T12:28:49.878Z,101349.13
2022-08-03T12:31:16.997Z,101350.81
2022-08-03T12:34:08.348Z,101348.06
2022-08-03T12:36:35.415Z,101351.88
2022-08-03T12:39:04.340Z,101352.72
2022-08-03T12:41:31.569Z,101348.06
2022-08-03T12:43:58.250Z,101339.84
2022-08-03T12:46:29.819Z,101346.38
2022-08-03T12:49:02.518Z,101339.00
2022-08-03T12:51:33.318Z,101334.56
2022-08-03T12:54:02.558Z,101332.66
2022-08-03T12:56:29.055Z,101322.75
2022-08-03T12:58:55.594Z,101332.66
2022-08-03T13:01:24.242Z,101327.19
2022-08-03T13:03:53.562Z,101323.59
2022-08-03T13:06:22.117Z,101316.22
2022-08-03T13:08:49.443Z,101309.88
2022-08-03T13:11:53.503Z,101313.69
2022-08-03T13:14:10.560Z,101306.50
2022-08-03T13:16:43.155Z,101314.75
2022-08-03T13:19:15.233Z,101308.38
2022-08-03T13:21:53.887Z,101308.38
2022-08-03T13:24:29.467Z,101308.59
2022-08-03T13:26:57.085Z,101313.88
2022-08-03T13:29:23.582Z,101305.63
2022-08-03T13:31:50.867Z,101311.13
2022-08-03T13:34:23.007Z,101307.53
2022-08-03T13:37:08.400Z,101307.75
2022-08-03T13:39:57.154Z,101305.84
2022-08-03T13:42:22.618Z,101314.06
2022-08-03T13:44:49.015Z,101310.50
2022-08-03T13:47:15.417Z,101307.75
2022-08-03T13:49:42.088Z,101305.00
2022-08-03T13:52:21.113Z,101302.47
2022-08-03T13:54:47.725Z,101304.16
2022-08-03T13:58:04.605Z,101298.69
2022-08-03T14:00:01.547Z,101296.78
2022-08-03T14:02:28.066Z,101291.28
2022-08-03T14:04:54.823Z,101289.59
2022-08-03T14:07:21.539Z,101295.09
2022-08-03T14:09:48.096Z,101295.94
2022-08-03T14:12:14.469Z,101287.72
2022-08-03T14:14:41.032Z,101283.28
2022-08-03T14:17:07.527Z,101294.25
2022-08-03T14:19:34.266Z,101289.78
2022-08-03T14:22:19.346Z,101279.69
2022-08-03T14:24:45.840Z,101282.00
2022-08-03T14:27:12.239Z,101279.69
2022-08-03T14:29:38.703Z,101274.22
2022-08-03T14:32:11.693Z,101278.81
2022-08-03T14:34:39.333Z,101280.53
2022-08-03T14:37:05.928Z,101282.44
2022-08-03T14:42:20.476Z,101276.97
2022-08-03T14:44:47.371Z,101265.13
2022-08-03T14:47:14.137Z,101279.88
2022-08-03T14:50:37.475Z,101277.13
2022-08-03T14:52:27.006Z,101270.59
2022-08-03T14:54:53.719Z,101275.25
2022-08-03T14:57:20.364Z,101276.09
2022-08-03T14:59:56.453Z,101273.34
2022-08-03T15:02:24.203Z,101269.75
2022-08-03T15:04:50.881Z,101265.31
2022-08-03T15:07:17.472Z,101267.00
2022-08-03T15:09:43.972Z,101264.47
2022-08-03T15:12:10.493Z,101264.47
2022-08-03T15:14:38.650Z,101255.19
2022-08-03T15:17:05.278Z,101252.47
2022-08-03T15:20:02.079Z,101248.03
2022-08-03T15:22:20.618Z,101250.78
2022-08-03T15:24:51.609Z,101246.97
2022-08-03T15:27:18.245Z,101245.28
2022-08-03T15:30:07.688Z,101243.38
2022-08-03T15:32:31.385Z,101248.88
2022-08-03T15:34:57.796Z,101247.19
2022-08-03T15:37:25.793Z,101244.44
2022-08-03T15:39:58.381Z,101241.50
2022-08-03T15:42:26.628Z,101252.47
2022-08-03T15:44:54.014Z,101248.03
2022-08-03T15:47:21.431Z,101247.19
2022-08-03T15:49:48.054Z,101241.72
2022-08-03T15:52:14.507Z,101247.19
2022-08-03T15:54:40.922Z,101244.44
2022-08-03T15:57:07.410Z,101245.28
2022-08-03T15:59:34.053Z,101243.38
2022-08-03T16:02:00.683Z,101237.06
2022-08-03T16:04:27.182Z,101237.06
2022-08-03T16:06:53.617Z,101241.72
2022-08-03T16:09:23.611Z,101236.22
2022-08-03T16:12:06.513Z,101238.97
2022-08-03T16:14:51.795Z,101242.53
2022-08-03T16:17:19.451Z,101231.78
2022-08-03T16:19:46.083Z,101240.88
2022-08-03T16:22:13.389Z,101236.22
2022-08-03T16:24:40.989Z,101241.50
2022-08-03T16:27:07.862Z,101240.66
2022-08-03T16:29:44.049Z,101234.53
2022-08-03T16:32:10.942Z,101234.31
2022-08-03T16:34:37.917Z,101229.06
2022-08-03T16:37:16.708Z,101235.38
2022-08-03T16:39:51.061Z,101227.16
2022-08-03T16:42:17.500Z,101237.91
2022-08-03T16:44:43.915Z,101234.31
2022-08-03T16:47:10.359Z,101235.16
2022-08-03T16:49:54.907Z,101231.59
2022-08-03T16:52:23.031Z,101234.31
2022-08-03T16:54:53.243Z,101231.59
2022-08-03T16:57:56.748Z,101229.47
2022-08-03T17:00:10.694Z,101231.38
2022-08-03T17:02:37.456Z,101228.44
2022-08-03T17:05:04.280Z,101235.81
2022-08-03T17:07:30.850Z,101235.81
2022-08-03T17:09:57.364Z,101237.69
2022-08-03T17:12:27.024Z,101240.44
2022-08-03T17:14:54.066Z,101237.50
2022-08-03T17:17:27.985Z,101242.16
2022-08-03T17:19:55.458Z,101241.09
2022-08-03T17:22:24.615Z,101244.69
2022-08-03T17:24:52.049Z,101246.56
2022-08-03T17:28:48.997Z,101240.03
2022-08-03T17:30:08.584Z,101239.19
2022-08-03T17:32:42.676Z,101240.88
2022-08-03T17:35:18.813Z,101242.78
2022-08-03T17:37:58.555Z,101242.78
2022-08-03T17:40:30.900Z,101240.03
2022-08-03T17:42:58.704Z,101243.63
2022-08-03T17:45:25.313Z,101243.63
2022-08-03T17:48:11.748Z,101250.78
2022-08-03T17:51:05.363Z,101243.63
2022-08-03T17:53:37.316Z,101248.03
2022-08-03T17:56:40.749Z,101251.66
2022-08-03T17:59:13.855Z,101252.69
2022-08-03T18:02:16.632Z,101254.41
2022-08-03T18:04:57.074Z,101254.41
2022-08-03T18:07:25.531Z,101251.66
2022-08-03T18:10:11.560Z,101244.47
2022-08-03T18:12:52.409Z,101254.19
2022-08-03T18:15:41.812Z,101251.44
2022-08-03T18:18:11.306Z,101257.16
2022-08-03T18:20:41.613Z,101261.75
2022-08-03T18:23:10.302Z,101248.91
2022-08-03T18:25:45.403Z,101256.09
2022-08-03T18:28:16.202Z,101254.19
2022-08-03T18:30:54.073Z,101247.84
2022-08-03T18:34:16.217Z,101251.44
2022-08-03T18:36:10.432Z,101257.16
2022-08-03T18:38:40.459Z,101259.66
2022-08-03T18:41:15.611Z,101256.94
2022-08-03T18:43:58.216Z,101262.41
2022-08-03T18:46:34.212Z,101256.94
2022-08-03T18:49:11.307Z,101270.63
2022-08-03T18:51:43.277Z,101274.22
2022-08-03T18:54:59.109Z,101261.56
2022-08-03T18:57:08.924Z,101264.31
2022-08-03T18:59:49.568Z,101272.53
2022-08-03T19:02:28.895Z,101265.16
2022-08-03T19:04:58.415Z,101270.84
2022-08-03T19:07:26.596Z,101265.16
2022-08-03T19:09:54.580Z,101272.53
2022-08-03T19:12:30.971Z,101276.97
2022-08-03T19:15:12.647Z,101274.22
2022-08-03T19:17:41.554Z,101274.22
2022-08-03T19:20:09.511Z,101278.03
2022-08-03T19:22:37.066Z,101283.28
2022-08-03T19:25:04.557Z,101282.44
2022-08-03T19:27:31.729Z,101283.28
2022-08-03T19:30:02.058Z,101275.06
2022-08-03T19:32:32.052Z,101278.66
2022-08-03T19:34:59.816Z,101275.91
2022-08-03T19:37:38.372Z,101276.75
2022-08-03T19:40:10.268Z,101281.41
2022-08-03T19:42:40.279Z,101282.25
2022-08-03T19:45:11.312Z,101290.47
2022-08-03T19:47:52.178Z,101284.13
2022-08-03T19:50:19.991Z,101295.94
2022-08-03T19:52:47.863Z,101292.22
2022-08-03T19:55:15.409Z,101290.47
2022-08-03T19:57:43.724Z,101284.13
2022-08-03T20:02:59.682Z,101294.13
2022-08-03T20:05:26.686Z,101288.63
2022-08-03T20:07:54.192Z,101289.47
2022-08-03T20:10:20.835Z,101285.88
2022-08-03T20:12:48.624Z,101281.25
2022-08-03T20:15:18.133Z,101282.25
2022-08-03T20:17:56.448Z,101283.16
2022-08-03T20:20:32.699Z,101282.09
2022-08-03T20:23:06.909Z,101277.66
2022-08-03T20:25:56.992Z,101282.94
2022-08-03T20:28:32.751Z,101284.00
2022-08-03T20:31:00.006Z,101284.63
2022-08-03T20:33:46.537Z,101270.28
2022-08-03T20:36:18.235Z,101284.84
2022-08-03T20:38:47.130Z,101279.34
2022-08-03T20:41:14.537Z,101285.69
2022-08-03T20:43:41.342Z,101274.69
2022-08-03T20:46:33.715Z,101279.50
2022-08-03T20:48:56.751Z,101278.50
2022-08-03T20:51:48.953Z,101273.03
2022-08-03T20:54:28.908Z,101278.50
2022-08-03T20:56:57.796Z,101270.63
2022-08-03T20:59:28.841Z,101280.41
2022-08-03T21:04:42.520Z,101283.16
2022-08-03T21:07:23.061Z,101287.72
2022-08-03T21:09:57.070Z,101290.31
2022-08-03T21:12:28.858Z,101284.97
2022-08-03T21:13:03.270Z,101289.47
2022-08-03T21:14:58.505Z,101286.03
2022-08-03T21:17:39.895Z,101283.69
2022-08-03T21:20:08.473Z,101286.03
2022-08-03T21:22:36.952Z,101287.25
2022-08-03T21:25:09.310Z,101285.38
2022-08-03T21:27:36.398Z,101294.66
2022-08-03T21:30:05.347Z,101297.19
2022-08-03T21:32:33.131Z,101288.75
2022-08-03T21:35:00.513Z,101288.56
2022-08-03T21:37:27.955Z,101291.28
2022-08-03T21:39:54.957Z,101290.44
2022-08-03T21:42:23.904Z,101292.34
2022-08-03T21:44:53.166Z,101292.53
2022-08-03T21:47:21.942Z,101288.94
2022-08-03T21:50:05.554Z,101284.53
2022-08-03T21:52:36.337Z,101293.41
2022-08-03T21:55:06.428Z,101284.31
2022-08-03T21:57:34.125Z,101290.84
2022-08-03T22:00:17.401Z,101285.38
2022-08-03T22:02:57.410Z,101287.94
2022-08-03T22:05:42.877Z,101285.38
2022-08-03T22:08:12.573Z,101298.03
2022-08-03T22:10:39.271Z,101294.44
2022-08-03T22:13:05.999Z,101289.78
2022-08-03T22:15:32.879Z,101292.53
2022-08-03T22:18:03.559Z,101291.50
2022-08-03T22:20:30.594Z,101291.50
2022-08-03T22:22:59.996Z,101284.31
2022-08-03T22:25:36.837Z,101292.53
2022-08-03T22:28:07.964Z,101300.75
2022-08-03T22:30:35.090Z,101298.91
2022-08-03T22:33:02.417Z,101305.22
2022-08-03T22:35:31.227Z,101295.28
2022-08-03T22:37:58.878Z,101297.00
2022-08-03T22:40:26.326Z,101299.75
2022-08-03T22:42:53.327Z,101306.06
2022-08-03T22:46:07.428Z,101303.31
2022-08-03T22:48:11.021Z,101301.63
2022-08-03T22:50:37.802Z,101309.00
2022-08-03T22:53:04.502Z,101302.47
2022-08-03T22:55:31.094Z,101301.63
2022-08-03T22:57:57.549Z,101305.22
2022-08-03T23:00:24.765Z,101296.16
2022-08-03T23:02:51.726Z,101307.13
2022-08-03T23:06:01.611Z,101303.50
2022-08-03T23:08:14.747Z,101304.38
2022-08-03T23:10:46.686Z,101307.97
2022-08-03T23:13:14.602Z,101298.03
2022-08-03T23:15:41.486Z,101307.97
2022-08-03T23:18:09.488Z,101303.50
2022-08-03T23:20:37.759Z,101302.47
2022-08-03T23:23:05.197Z,101300.75
2022-08-03T23:25:31.727Z,101296.16
2022-08-03T23:28:04.849Z,101299.75
2022-08-03T23:30:33.655Z,101298.69
2022-08-03T23:33:00.971Z,101302.25
2022-08-03T23:36:28.698Z,101301.22
2022-08-03T23:38:37.345Z,101298.47
2022-08-03T23:41:04.746Z,101298.47
2022-08-03T23:43:50.832Z,101289.41
2022-08-03T23:46:19.769Z,101294.88
2022-08-03T23:48:46.490Z,101299.31
2022-08-03T23:51:31.756Z,101291.28
2022-08-03T23:54:02.947Z,101294.88
2022-08-03T23:56:38.042Z,101292.13
2022-08-03T23:59:27.449Z,101296.56
